Time;durP1;ratioP1;P1;durP2;ratioP2;P2;SDS_P1;SDS_P2;PMS_P1;PMS_P2;Temp;Humidity;BMP_temperature;BMP_pressure;BME280_temperature;BME280_humidity;BME280_pressure;Samples;Min_cycle;Max_cycle;Signal;HPM_P1;HPM_P2
2021/01/06 00:01:44;;;;;;;34.75;16.33;;;;;;;;;;5053547;28;20033;-71
2021/01/06 00:04:10;;;;;;;35.47;16.83;;;;;;;;;;5053797;28;20484;-69
2021/01/06 00:06:38;;;;;;;31.92;15.20;;;7.70;66.70;;;;;;5053685;28;20025;-67
2021/01/06 00:09:05;;;;;;;26.77;13.85;;;7.60;66.80;;;;;;5053498;28;20044;-69
2021/01/06 00:11:36;;;;;;;33.35;15.85;;;7.60;67.40;;;;;;5053228;28;20032;-70
2021/01/06 00:14:05;;;;;;;36.78;16.42;;;7.40;68.30;;;;;;5052557;28;20433;-69
2021/01/06 00:16:31;;;;;;;34.35;16.75;;;;;;;;;;5053500;28;20067;-69
2021/01/06 00:18:57;;;;;;;32.60;16.02;;;;;;;;;;5053439;28;20016;-67
2021/01/06 00:21:24;;;;;;;33.40;16.38;;;;;;;;;;5052988;28;20110;-69
2021/01/06 00:23:50;;;;;;;40.50;17.63;;;;;;;;;;5052925;28;20056;-68
2021/01/06 00:26:16;;;;;;;35.67;17.00;;;;;;;;;;5053259;28;20064;-68
2021/01/06 00:28:43;;;;;;;32.50;16.27;;;;;;;;;;5052455;28;20043;-67
2021/01/06 00:31:09;;;;;;;32.45;16.27;;;;;;;;;;5053171;28;20033;-69
2021/01/06 00:33:36;;;;;;;36.42;17.60;;;7.80;66.30;;;;;;5053250;28;20032;-67
2021/01/06 00:36:09;;;;;;;35.55;16.60;;;7.90;66.40;;;;;;5052958;28;20483;-69
2021/01/06 00:38:37;;;;;;;33.95;17.38;;;7.90;66.30;;;;;;5053027;28;20035;-69
2021/01/06 00:41:03;;;;;;;34.38;16.25;;;;;;;;;;5052784;28;20028;-69
2021/01/06 00:43:29;;;;;;;34.05;14.93;;;;;;;;;;5051845;28;20382;-69
2021/01/06 00:45:56;;;;;;;31.10;14.15;;;;;;;;;;5053018;28;20097;-69
2021/01/06 00:48:22;;;;;;;26.80;13.05;;;;;;;;;;5052899;28;20033;-69
2021/01/06 00:50:49;;;;;;;32.05;14.65;;;;;;;;;;5051389;28;20040;-70
2021/01/06 00:53:23;;;;;;;31.98;15.40;;;7.90;66.60;;;;;;5051537;28;20049;-70
2021/01/06 00:55:52;;;;;;;32.78;15.55;;;;;;;;;;5051471;28;20040;-69
2021/01/06 00:58:18;;;;;;;;;;;7.90;66.60;;;;;;5051018;28;20128;-69
2021/01/06 01:00:45;;;;;;;32.33;14.98;;;;;;;;;;5051270;28;19939;-69
2021/01/06 01:03:13;;;;;;;33.22;15.23;;;;;;;;;;5052154;28;20450;-69
2021/01/06 01:05:41;;;;;;;29.33;14.23;;;;;;;;;;5051117;28;20048;-70
2021/01/06 01:08:09;;;;;;;30.83;15.05;;;7.30;68.70;;;;;;5052373;28;20036;-69
2021/01/06 01:10:46;;;;;;;30.90;15.10;;;7.70;68.40;;;;;;5050916;28;20029;-69
2021/01/06 01:13:19;;;;;;;28.38;14.52;;;7.30;67.80;;;;;;5052077;28;20435;-71
2021/01/06 01:15:47;;;;;;;33.17;15.63;;;7.60;67.70;;;;;;5052256;28;20032;-71
2021/01/06 01:18:17;;;;;;;32.63;16.48;;;7.80;67.10;;;;;;5051990;28;20087;-70
2021/01/06 01:20:45;;;;;;;31.75;15.27;;;7.90;67.20;;;;;;5051864;28;20089;-70
2021/01/06 01:23:11;;;;;;;35.50;16.45;;;;;;;;;;5050670;28;20052;-69
2021/01/06 01:25:38;;;;;;;34.28;16.08;;;;;;;;;;5051364;28;20043;-69
2021/01/06 01:28:04;;;;;;;30.75;15.45;;;;;;;;;;5051045;28;20045;-69
2021/01/06 01:30:30;;;;;;;32.22;14.77;;;;;;;;;;5051987;28;20040;-68
2021/01/06 01:32:57;;;;;;;37.03;17.25;;;;;;;;;;5034265;28;20107;-69
2021/01/06 01:35:29;;;;;;;34.83;17.52;;;7.10;69.30;;;;;;5031899;28;20025;-69
2021/01/06 01:37:56;;;;;;;37.65;16.58;;;7.20;69.30;;;;;;5031774;28;20396;-70
2021/01/06 01:40:23;;;;;;;34.53;16.65;;;;;;;;;;5031655;28;20811;-69
2021/01/06 01:42:53;;;;;;;36.35;15.35;;;7.50;68.40;;;;;;5031190;28;20025;-67
2021/01/06 01:45:44;;;;;;;34.83;16.02;;;7.30;69.10;;;;;;5031816;28;20061;-68
2021/01/06 01:48:19;;;;;;;38.80;18.08;;;7.10;69.50;;;;;;5031696;28;20102;-67
2021/01/06 01:50:46;;;;;;;37.38;16.65;;;7.30;69.30;;;;;;5031395;28;20914;-71
2021/01/06 01:53:19;;;;;;;39.60;17.00;;;7.70;68.60;;;;;;5031888;28;20492;-71
2021/01/06 01:55:48;;;;;;;37.53;16.58;;;7.30;68.60;;;;;;5030044;28;20587;-68
2021/01/06 01:58:22;;;;;;;32.70;13.25;;;6.80;69.80;;;;;;5031547;28;20035;-69
2021/01/06 02:00:48;;;;;;;38.65;16.55;;;;;;;;;;5031586;28;20381;-69
2021/01/06 02:03:36;;;;;;;34.03;16.85;;;7.10;69.90;;;;;;5031349;28;20037;-69
2021/01/06 02:06:07;;;;;;;43.08;16.70;;;7.30;69.10;;;;;;5031728;28;20071;-69
2021/01/06 02:08:38;;;;;;;36.40;15.32;;;7.10;69.30;;;;;;5031188;28;20044;-68
2021/01/06 02:11:16;;;;;;;39.33;17.05;;;7.30;69.20;;;;;;5031282;28;20026;-68
2021/01/06 02:13:50;;;;;;;38.42;16.83;;;7.30;68.70;;;;;;5031038;28;20025;-69
2021/01/06 02:16:31;;;;;;;42.28;17.83;;;7.40;68.40;;;;;;5031721;28;20029;-67
2021/01/06 02:18:58;;;;;;;39.95;16.38;;;;;;;;;;5031673;28;20061;-69
2021/01/06 02:21:26;;;;;;;30.10;13.57;;;7.30;68.20;;;;;;5031385;28;20072;-69
2021/01/06 02:23:56;;;;;;;33.60;15.50;;;6.90;69.60;;;;;;5030673;28;20061;-70
2021/01/06 02:26:25;;;;;;;31.25;13.95;;;7.40;68.50;;;;;;5031412;28;20037;-68
2021/01/06 02:28:51;;;;;;;29.92;15.18;;;;;;;;;;5031434;28;20061;-71
2021/01/06 02:31:18;;;;;;;30.33;14.77;;;;;;;;;;5031629;28;20026;-69
2021/01/06 02:33:46;;;;;;;33.65;15.00;;;7.80;66.40;;;;;;5031530;28;20037;-70
2021/01/06 02:36:12;;;;;;;30.88;13.77;;;;;;;;;;5017652;28;20083;-70
2021/01/06 02:38:38;;;;;;;26.80;13.55;;;;;;;;;;5030895;28;20087;-68
2021/01/06 02:41:05;;;;;;;36.50;15.82;;;;;;;;;;5030881;28;20482;-69
2021/01/06 02:43:32;;;;;;;40.30;15.30;;;;;;;;;;5031055;28;20052;-69
2021/01/06 02:45:59;;;;;;;35.05;14.85;;;7.10;68.00;;;;;;5031392;28;20029;-68
2021/01/06 02:48:25;;;;;;;28.98;14.73;;;7.10;68.50;;;;;;5031385;28;20021;-67
2021/01/06 02:50:57;;;;;;;32.88;14.60;;;6.90;69.30;;;;;;5031198;28;20036;-69
2021/01/06 02:53:31;;;;;;;31.13;15.60;;;8.40;69.00;;;;;;5031113;28;20517;-67
2021/01/06 02:55:58;;;;;;;30.10;14.57;;;7.30;67.60;;;;;;5034857;28;20052;-67
2021/01/06 02:58:27;;;;;;;32.05;15.07;;;7.30;67.40;;;;;;5021199;28;20503;-68
2021/01/06 03:00:53;;;;;;;33.05;14.38;;;7.30;67.80;;;;;;5035192;28;20076;-67
2021/01/06 03:03:23;;;;;;;;;;;7.60;68.40;;;;;;5035444;28;20033;-68
2021/01/06 03:06:08;;;;;;;31.17;14.40;;;7.10;68.30;;;;;;5035016;28;19909;-69
2021/01/06 03:08:36;;;;;;;27.38;13.18;;;6.80;68.90;;;;;;5034556;28;20033;-67
2021/01/06 03:11:03;;;;;;;30.85;15.18;;;;;;;;;;5035152;28;20071;-69
2021/01/06 03:13:30;;;;;;;29.55;14.38;;;7.10;68.30;;;;;;5034589;28;20029;-67
2021/01/06 03:15:57;;;;;;;34.25;15.85;;;;;;;;;;5034714;28;20166;-69
2021/01/06 03:18:23;;;;;;;28.40;13.30;;;7.70;66.20;;;;;;5034505;28;20029;-66
2021/01/06 03:20:53;;;;;;;25.05;13.50;;;7.70;66.40;;;;;;5034469;28;20029;-69
2021/01/06 03:23:27;;;;;;;34.30;15.02;;;7.90;65.30;;;;;;5033988;28;20095;-69
2021/01/06 03:25:55;;;;;;;27.77;13.43;;;7.50;66.60;;;;;;5034626;28;20033;-70
2021/01/06 03:28:22;;;;;;;30.35;15.02;;;7.20;67.20;;;;;;5034405;28;20037;-71
2021/01/06 03:30:49;;;;;;;30.52;13.55;;;;;;;;;;5034327;28;20442;-69
2021/01/06 03:33:33;;;;;;;31.08;14.73;;;7.60;66.20;;;;;;5034292;28;20061;-71
2021/01/06 03:36:08;;;;;;;28.77;12.75;;;7.60;66.10;;;;;;5021244;28;20065;-70
2021/01/06 03:38:46;;;;;;;30.98;14.65;;;7.60;66.10;;;;;;5034164;28;20408;-68
2021/01/06 03:41:13;;;;;;;35.47;16.20;;;;;;;;;;5034120;28;20358;-68
2021/01/06 03:43:57;;;;;;;31.60;13.63;;;7.00;67.50;;;;;;5034046;28;20113;-68
2021/01/06 03:46:34;;;;;;;27.38;13.38;;;6.80;68.50;;;;;;5034129;28;20057;-68
2021/01/06 03:49:12;;;;;;;32.47;15.07;;;6.90;68.40;;;;;;5034311;28;20543;-68
2021/01/06 03:51:57;;;;;;;29.08;14.00;;;6.70;68.50;;;;;;5033456;28;20060;-71
2021/01/06 03:54:37;;;;;;;26.98;13.82;;;6.70;68.80;;;;;;5033759;28;20026;-68
2021/01/06 03:57:05;;;;;;;30.38;14.05;;;7.10;67.50;;;;;;5034020;28;20033;-67
2021/01/06 03:59:34;;;;;;;24.92;13.27;;;7.10;67.30;;;;;;5032804;28;20413;-68
2021/01/06 04:02:12;;;;;;;49.60;14.98;;;7.30;66.50;;;;;;5033634;28;20378;-67
2021/01/06 04:04:41;;;;;;;28.75;14.05;;;7.30;66.60;;;;;;5033034;28;20117;-67
2021/01/06 04:07:19;;;;;;;29.88;14.13;;;7.10;66.90;;;;;;5033233;28;20034;-70
2021/01/06 04:09:51;;;;;;;29.50;14.23;;;7.50;65.90;;;;;;5033388;28;20030;-67
2021/01/06 04:12:18;;;;;;;27.75;14.00;;;7.40;66.00;;;;;;5033710;28;20104;-70
2021/01/06 04:14:45;;;;;;;31.08;14.27;;;;;;;;;;5033264;28;20052;-67
2021/01/06 04:17:17;;;;;;;28.15;12.77;;;7.20;66.40;;;;;;5033564;28;20036;-68
2021/01/06 04:19:47;;;;;;;27.48;13.45;;;7.10;66.90;;;;;;5032793;28;20397;-69
2021/01/06 04:22:14;;;;;;;29.55;13.90;;;7.00;67.30;;;;;;5033058;28;20056;-68
2021/01/06 04:24:41;;;;;;;24.88;12.75;;;;;;;;;;5033360;28;20041;-67
2021/01/06 04:27:11;;;;;;;24.02;12.73;;;7.60;65.70;;;;;;5033261;28;20485;-66
2021/01/06 04:29:40;;;;;;;26.98;12.57;;;;;;;;;;5033251;28;20075;-70
2021/01/06 04:32:07;;;;;;;24.70;13.85;;;;;;;;;;5033061;28;20500;-68
2021/01/06 04:34:33;;;;;;;29.60;13.40;;;;;;;;;;5032511;28;20585;-70
2021/01/06 04:36:59;;;;;;;25.58;14.05;;;;;;;;;;5033099;28;20044;-69
2021/01/06 04:39:26;;;;;;;26.85;12.15;;;;;;;;;;5033173;28;20393;-69
2021/01/06 04:42:01;;;;;;;27.60;13.32;;;6.90;67.10;;;;;;5033059;28;20025;-70
2021/01/06 04:44:46;;;;;;;24.83;12.40;;;7.10;66.30;;;;;;5032759;28;20539;-70
2021/01/06 04:47:45;;;;;;;26.50;14.23;;;7.20;65.50;;;;;;5032843;28;20040;-66
2021/01/06 04:50:30;;;;;;;26.40;12.43;;;6.90;66.20;;;;;;5020954;28;20021;-68
2021/01/06 04:52:59;;;;;;;31.45;13.85;;;7.00;66.90;;;;;;5032642;28;20093;-68
2021/01/06 04:55:39;;;;;;;31.80;14.30;;;7.00;66.60;;;;;;5032651;28;20036;-70
2021/01/06 04:58:41;;;;;;;27.88;13.88;;;7.10;66.40;;;;;;5032696;28;20075;-69
2021/01/06 05:01:31;;;;;;;28.83;13.82;;;7.40;65.30;;;;;;5049777;28;20515;-68
2021/01/06 05:03:58;;;;;;;27.38;14.57;;;;;;;;;;5049552;28;20072;-69
2021/01/06 05:06:43;;;;;;;30.77;14.85;;;6.80;67.10;;;;;;5050019;28;20390;-67
2021/01/06 05:09:26;;;;;;;30.48;14.20;;;7.00;66.30;;;;;;5050173;28;20456;-68
2021/01/06 05:12:26;;;;;;;26.95;14.20;;;7.20;65.80;;;;;;5049844;28;20098;-69
2021/01/06 05:15:32;;;;;;;26.45;14.13;;;7.40;64.50;;;;;;5049831;28;20102;-69
2021/01/06 05:17:59;;;;;;;29.77;14.35;;;;;;;;;;5048771;28;20528;-68
2021/01/06 05:20:25;;;;;;;26.42;14.05;;;;;;;;;;5049880;28;20396;-68
2021/01/06 05:22:52;;;;;;;30.33;15.18;;;;;;;;;;5032810;28;20071;-69
2021/01/06 05:25:18;;;;;;;31.40;13.95;;;;;;;;;;5049706;28;20132;-69
2021/01/06 05:27:46;;;;;;;26.80;14.60;;;;;;;;;;5049763;28;20164;-69
2021/01/06 05:30:32;;;;;;;29.98;15.15;;;7.30;64.80;;;;;;5032691;28;20029;-69
2021/01/06 05:33:00;;;;;;;26.10;13.27;;;7.60;64.60;;;;;;5049392;28;20029;-69
2021/01/06 05:35:31;;;;;;;23.58;13.82;;;7.60;63.70;;;;;;5049378;28;20032;-69
2021/01/06 05:38:00;;;;;;;28.95;15.38;;;7.40;63.70;;;;;;5037212;28;20386;-69
2021/01/06 05:40:28;;;;;;;23.42;13.68;;;7.50;64.00;;;;;;5031953;28;20045;-69
2021/01/06 05:42:58;;;;;;;26.38;14.60;;;7.50;63.50;;;;;;5031799;28;20037;-69
2021/01/06 05:45:35;;;;;;;30.63;14.50;;;7.10;64.10;;;;;;5031644;28;20404;-68
2021/01/06 05:48:06;;;;;;;25.23;13.25;;;7.10;64.90;;;;;;5030868;28;20493;-69
2021/01/06 05:50:32;;;;;;;25.02;14.75;;;;;;;;;;5031648;28;20029;-68
2021/01/06 05:53:44;;;;;;;24.42;13.13;;;7.00;65.30;;;;;;5031608;28;20033;-69
2021/01/06 05:56:29;;;;;;;24.77;13.05;;;7.30;64.40;;;;;;5046961;28;20029;-68
2021/01/06 05:59:04;;;;;;;25.63;13.45;;;7.30;63.70;;;;;;5049378;28;20123;-69
2021/01/06 06:01:30;;;;;;;25.05;13.38;;;;;;;;;;5048406;28;20203;-69
2021/01/06 06:04:17;;;;;;;23.73;12.77;;;7.50;62.90;;;;;;5049100;28;20040;-69
2021/01/06 06:07:15;;;;;;;26.27;14.00;;;7.70;63.10;;;;;;5032606;28;20037;-68
2021/01/06 06:10:05;;;;;;;28.02;13.73;;;7.50;63.30;;;;;;5048894;28;20484;-70
2021/01/06 06:12:36;;;;;;;30.33;13.00;;;7.30;63.40;;;;;;5048975;28;20044;-68
2021/01/06 06:15:10;;;;;;;30.60;14.77;;;7.60;62.90;;;;;;5048827;28;20036;-70
2021/01/06 06:17:36;;;;;;;25.45;14.00;;;;;;;;;;5048568;28;20039;-69
2021/01/06 06:20:12;;;;;;;25.10;12.85;;;8.00;61.70;;;;;;5048578;28;20040;-69
2021/01/06 06:23:03;;;;;;;25.27;12.80;;;8.00;61.20;;;;;;5048379;28;20057;-70
2021/01/06 06:25:34;;;;;;;25.10;12.20;;;8.10;61.70;;;;;;5032161;28;20037;-70
2021/01/06 06:28:02;;;;;;;26.05;14.00;;;7.90;61.50;;;;;;5049115;28;20118;-70
2021/01/06 06:30:51;;;;;;;25.67;13.27;;;7.20;63.30;;;;;;5051937;28;20116;-70
2021/01/06 06:33:30;;;;;;;23.77;13.68;;;7.10;63.60;;;;;;5040522;28;20044;-68
2021/01/06 06:35:59;;;;;;;24.20;13.55;;;7.40;63.40;;;;;;5028122;28;20041;-68
2021/01/06 06:38:41;;;;;;;22.60;12.60;;;7.90;62.40;;;;;;5034919;28;20089;-68
2021/01/06 06:41:09;;;;;;;26.65;14.23;;;8.00;61.30;;;;;;5028344;28;20044;-68
2021/01/06 06:43:47;;;;;;;25.33;12.60;;;7.90;61.60;;;;;;4328736;28;10000704;-66
2021/01/06 06:46:20;;;;;;;26.27;13.35;;;7.60;61.80;;;;;;5029641;28;20025;-67
2021/01/06 06:49:18;;;;;;;22.77;12.90;;;7.50;62.30;;;;;;5032552;28;20038;-68
2021/01/06 06:51:56;;;;;;;27.77;13.93;;;7.60;62.30;;;;;;5019649;28;20052;-68
2021/01/06 06:54:47;;;;;;;28.33;12.73;;;7.90;61.70;;;;;;5032141;28;20034;-69
2021/01/06 06:57:17;;;;;;;30.30;13.13;;;8.10;60.60;;;;;;5032415;28;20436;-69
2021/01/06 06:59:55;;;;;;;27.73;13.98;;;8.20;60.40;;;;;;5031953;28;20087;-69
2021/01/06 07:02:21;;;;;;;27.13;14.45;;;;;;;;;;5032541;28;20029;-69
2021/01/06 07:04:52;;;;;;;24.25;13.85;;;8.10;61.00;;;;;;5030915;28;20136;-69
2021/01/06 07:07:41;;;;;;;24.38;13.25;;;7.70;61.40;;;;;;5032068;28;20037;-69
2021/01/06 07:10:20;;;;;;;25.85;13.48;;;7.70;61.30;;;;;;5032340;28;20112;-68
2021/01/06 07:12:47;;;;;;;27.40;12.82;;;;;;;;;;5030810;28;20374;-68
2021/01/06 07:15:39;;;;;;;26.25;13.02;;;7.20;63.10;;;;;;5031569;28;20025;-68
2021/01/06 07:18:27;;;;;;;24.52;12.85;;;7.40;62.70;;;;;;5031059;28;20492;-67
2021/01/06 07:21:17;;;;;;;24.88;13.23;;;7.50;62.70;;;;;;5021312;28;20029;-69
2021/01/06 07:24:01;;;;;;;27.50;13.85;;;7.60;61.60;;;;;;5020838;28;20084;-69
2021/01/06 07:26:35;;;;;;;21.92;12.48;;;7.20;62.20;;;;;;5031897;28;20071;-68
2021/01/06 07:29:04;;;;;;;22.80;12.18;;;7.20;62.50;;;;;;5031193;28;20091;-69
2021/01/06 07:31:38;;;;;;;31.15;13.50;;;7.50;61.90;;;;;;5031501;28;20027;-68
2021/01/06 07:34:07;;;;;;;26.08;13.75;;;7.70;61.60;;;;;;5031689;28;20048;-69
2021/01/06 07:36:54;;;;;;;24.02;12.77;;;7.40;61.10;;;;;;5031842;28;20481;-69
2021/01/06 07:39:29;;;;;;;21.02;12.30;;;7.30;61.90;;;;;;5018373;28;20049;-68
2021/01/06 07:41:56;;;;;;;24.48;12.10;;;7.50;60.80;;;;;;5031500;28;20048;-66
2021/01/06 07:44:26;;;;;;;21.13;11.00;;;7.30;61.20;;;;;;5031256;28;20064;-70
2021/01/06 07:47:00;;;;;;;18.35;10.40;;;7.50;61.20;;;;;;5031612;28;20037;-68
2021/01/06 07:49:33;;;;;;;21.70;11.85;;;7.80;60.60;;;;;;5029715;28;20029;-69
2021/01/06 07:52:27;;;;;;;25.13;11.65;;;7.60;60.10;;;;;;5030987;28;20065;-69
2021/01/06 07:55:06;;;;;;;22.15;11.70;;;7.60;59.80;;;;;;5030736;28;20057;-67
2021/01/06 07:57:42;;;;;;;21.15;10.98;;;7.50;60.10;;;;;;5024023;28;20026;-68
2021/01/06 08:00:11;;;;;;;21.10;11.52;;;7.70;59.70;;;;;;5029555;28;20025;-69
2021/01/06 08:02:58;;;;;;;17.83;10.02;;;7.80;59.90;;;;;;5023765;28;20489;-68
2021/01/06 08:05:24;;;;;;;17.87;10.10;;;;;;;;;;5030599;28;20036;-68
2021/01/06 08:08:05;;;;;;;19.17;10.38;;;7.60;58.60;;;;;;5030024;28;20413;-67
2021/01/06 08:10:31;;;;;;;18.40;10.18;;;;;;;;;;5028780;28;20037;-68
2021/01/06 08:13:13;;;;;;;18.52;10.32;;;6.80;61.00;;;;;;5028145;28;20492;-69
2021/01/06 08:15:39;;;;;;;17.38;10.25;;;;;;;;;;5021447;28;20039;-70
2021/01/06 08:18:24;;;;;;;16.83;9.82;;;6.70;60.90;;;;;;5030904;28;20037;-70
2021/01/06 08:21:31;;;;;;;20.75;10.98;;;6.90;61.00;;;;;;5022464;28;20030;-69
2021/01/06 08:24:21;;;;;;;19.45;9.98;;;7.40;59.50;;;;;;5047893;28;20551;-69
2021/01/06 08:26:52;;;;;;;18.52;10.00;;;7.50;58.40;;;;;;5049692;28;20032;-71
2021/01/06 08:29:28;;;;;;;19.73;10.35;;;7.40;59.10;;;;;;5050347;28;20079;-70
2021/01/06 08:31:58;;;;;;;22.50;10.70;;;7.50;59.80;;;;;;5050075;28;20033;-70
2021/01/06 08:34:27;;;;;;;19.05;10.52;;;7.70;59.50;;;;;;5049992;28;20302;-71
2021/01/06 08:37:09;;;;;;;22.48;11.00;;;7.70;59.10;;;;;;5050247;28;20083;-67
2021/01/06 08:39:53;;;;;;;20.05;10.95;;;7.60;59.60;;;;;;5050431;28;20072;-68
2021/01/06 08:42:40;;;;;;;24.63;11.82;;;7.50;60.70;;;;;;5049528;28;20122;-69
2021/01/06 08:45:17;;;;;;;24.08;11.77;;;7.60;60.70;;;;;;5049955;28;20048;-69
2021/01/06 08:47:44;;;;;;;21.35;11.05;;;;;;;;;;5050077;28;20056;-68
2021/01/06 08:50:15;;;;;;;21.80;11.23;;;7.50;60.50;;;;;;5049880;28;20424;-69
2021/01/06 08:52:56;;;;;;;22.70;12.40;;;7.30;61.10;;;;;;5048573;28;20512;-68
2021/01/06 08:55:34;;;;;;;25.80;12.68;;;7.40;61.90;;;;;;5028182;28;20049;-68
2021/01/06 08:58:13;;;;;;;22.10;12.23;;;7.30;61.60;;;;;;5032113;28;20546;-68
2021/01/06 09:00:39;;;;;;;22.08;11.80;;;;;;;;;;5028789;28;20026;-68
2021/01/06 09:03:44;;;;;;;21.25;10.63;;;7.40;61.40;;;;;;5031088;28;20116;-68
2021/01/06 09:06:10;;;;;;;22.42;11.43;;;;;;;;;;5032309;28;20111;-69
2021/01/06 09:08:36;;;;;;;18.55;10.70;;;;;;;;;;5032295;28;20032;-70
2021/01/06 09:11:20;;;;;;;31.23;11.85;;;7.00;62.40;;;;;;4681550;28;10000241;-70
2021/01/06 09:13:46;;;;;;;19.77;10.93;;;;;;;;;;5021310;28;20029;-69
2021/01/06 09:16:12;;;;;;;22.17;10.80;;;;;;;;;;5028365;28;20485;-69
2021/01/06 09:18:48;;;;;;;21.80;11.60;;;7.50;60.80;;;;;;5029831;28;20038;-70
2021/01/06 09:21:23;;;;;;;22.83;10.98;;;7.20;61.10;;;;;;5029019;28;20030;-68
2021/01/06 09:23:54;;;;;;;18.63;10.23;;;7.10;61.30;;;;;;5029510;28;20064;-72
2021/01/06 09:26:23;;;;;;;21.92;10.98;;;6.70;62.40;;;;;;5028959;28;20045;-70
2021/01/06 09:28:58;;;;;;;22.55;11.98;;;6.50;63.50;;;;;;5029732;28;20048;-69
2021/01/06 09:31:25;;;;;;;20.40;11.25;;;;;;;;;;5029544;28;20029;-68
2021/01/06 09:33:52;;;;;;;21.13;10.88;;;;;;;;;;5028810;28;20396;-67
2021/01/06 09:36:18;;;;;;;18.05;10.93;;;;;;;;;;5029033;28;20673;-69
2021/01/06 09:38:47;;;;;;;28.05;12.27;;;6.20;65.10;;;;;;5028798;28;20053;-68
2021/01/06 09:41:20;;;;;;;23.02;11.35;;;6.20;64.80;;;;;;5029009;28;20021;-69
2021/01/06 09:43:57;;;;;;;21.77;10.32;;;6.10;65.30;;;;;;5029326;28;20029;-69
2021/01/06 09:46:31;;;;;;;20.88;12.02;;;6.30;65.40;;;;;;5028813;28;20496;-69
2021/01/06 09:49:03;;;;;;;20.80;10.20;;;6.80;64.30;;;;;;5029473;28;20099;-69
2021/01/06 09:51:30;;;;;;;22.35;12.25;;;6.90;62.80;;;;;;5028140;28;20034;-70
2021/01/06 09:53:58;;;;;;;;;;;7.00;63.30;;;;;;5029252;28;20072;-69
2021/01/06 09:56:26;;;;;;;23.70;11.93;;;7.20;61.60;;;;;;5029111;28;19924;-68
2021/01/06 09:58:53;;;;;;;25.70;12.00;;;7.30;61.30;;;;;;5028927;28;20029;-68
2021/01/06 10:01:30;;;;;;;25.85;11.05;;;6.90;62.60;;;;;;5029104;28;20036;-70
2021/01/06 10:04:02;;;;;;;32.20;12.70;;;6.70;63.40;;;;;;5028634;28;20109;-69
2021/01/06 10:06:49;;;;;;;24.42;12.15;;;7.00;62.90;;;;;;5028157;28;20394;-68
2021/01/06 10:09:20;;;;;;;22.17;10.95;;;7.00;62.40;;;;;;5031029;28;20029;-68
2021/01/06 10:12:27;;;;;;;21.65;11.38;;;7.20;61.60;;;;;;5030724;28;20113;-68
2021/01/06 10:15:30;;;;;;;22.70;12.13;;;7.20;61.50;;;;;;5028534;28;20033;-67
2021/01/06 10:18:14;;;;;;;20.02;11.20;;;7.20;62.30;;;;;;5029157;28;20496;-67
2021/01/06 10:21:24;;;;;;;21.48;11.75;;;7.00;62.10;;;;;;5019008;28;20064;-67
2021/01/06 10:23:54;;;;;;;20.73;11.27;;;6.90;62.80;;;;;;5028020;28;20050;-68
2021/01/06 10:26:38;;;;;;;19.98;11.45;;;6.90;63.40;;;;;;5028972;28;20821;-67
2021/01/06 10:29:34;;;;;;;21.67;12.15;;;7.00;63.20;;;;;;5015396;28;20120;-67
2021/01/06 10:32:01;;;;;;;22.27;11.15;;;;;;;;;;5030875;28;20088;-68
2021/01/06 10:34:45;;;;;;;21.40;11.30;;;7.30;61.50;;;;;;5030757;28;20473;-67
2021/01/06 10:37:25;;;;;;;24.38;11.25;;;7.40;62.20;;;;;;5026291;28;20033;-67
2021/01/06 10:39:51;;;;;;;31.55;12.77;;;;;;;;;;5030145;28;20042;-67
2021/01/06 10:42:17;;;;;;;23.98;12.27;;;;;;;;;;5030617;28;20044;-69
2021/01/06 10:44:53;;;;;;;21.95;11.15;;;7.30;61.30;;;;;;5030535;28;20524;-66
2021/01/06 10:47:31;;;;;;;22.42;11.57;;;7.10;62.00;;;;;;5030600;28;20037;-68
2021/01/06 10:49:57;;;;;;;23.75;12.25;;;;;;;;;;5015723;28;20045;-67
2021/01/06 10:52:51;;;;;;;25.98;12.32;;;7.40;60.80;;;;;;5030001;28;20026;-67
2021/01/06 10:55:26;;;;;;;24.92;12.35;;;7.30;61.30;;;;;;5030746;28;20030;-66
2021/01/06 10:58:03;;;;;;;22.80;11.75;;;7.10;61.90;;;;;;5030327;28;20048;-70
2021/01/06 11:00:45;;;;;;;23.63;12.07;;;6.90;62.20;;;;;;5028926;28;20029;-69
2021/01/06 11:03:20;;;;;;;18.20;10.65;;;6.90;62.60;;;;;;5030263;28;20514;-67
2021/01/06 11:05:52;;;;;;;25.92;11.13;;;6.60;63.20;;;;;;5021544;28;20076;-68
2021/01/06 11:08:46;;;;;;;20.50;12.23;;;6.70;63.30;;;;;;5027409;28;20092;-66
2021/01/06 11:11:40;;;;;;;21.48;11.10;;;7.00;62.70;;;;;;5030577;28;20572;-68
2021/01/06 11:14:30;;;;;;;21.42;11.18;;;7.00;62.60;;;;;;5023293;28;20061;-68
2021/01/06 11:17:10;;;;;;;19.92;11.35;;;6.90;62.70;;;;;;5033741;28;20052;-68
2021/01/06 11:19:45;;;;;;;22.60;10.68;;;7.00;62.00;;;;;;5033300;28;20155;-65
2021/01/06 11:22:36;;;;;;;20.70;10.85;;;7.20;61.50;;;;;;5032893;28;20065;-66
2021/01/06 11:25:03;;;;;;;20.10;9.93;;;;;;;;;;5029080;28;20065;-70
2021/01/06 11:27:39;;;;;;;21.38;10.63;;;6.90;62.10;;;;;;5034335;28;20034;-69
2021/01/06 11:30:20;;;;;;;21.08;10.80;;;7.10;61.00;;;;;;5033829;28;20061;-69
2021/01/06 11:32:48;;;;;;;19.35;11.45;;;7.00;60.80;;;;;;5034279;28;20108;-68
2021/01/06 11:35:16;;;;;;;19.58;10.75;;;7.10;61.10;;;;;;5033363;28;20037;-69
2021/01/06 11:37:43;;;;;;;19.10;10.65;;;7.00;61.10;;;;;;5033754;28;20029;-69
2021/01/06 11:40:14;;;;;;;;;;;7.00;61.60;;;;;;5034154;28;20372;-66
2021/01/06 11:42:57;;;;;;;20.30;9.75;;;6.70;61.70;;;;;;5030026;28;19968;-67
2021/01/06 11:45:29;;;;;;;20.95;11.00;;;6.70;61.70;;;;;;5033816;28;20040;-69
2021/01/06 11:48:06;;;;;;;18.25;10.18;;;7.10;60.80;;;;;;5033781;28;20034;-68
2021/01/06 11:50:42;;;;;;;19.48;10.18;;;7.40;60.20;;;;;;5033248;28;20389;-70
2021/01/06 11:53:25;;;;;;;20.75;10.80;;;7.50;60.10;;;;;;5030234;28;20136;-67
2021/01/06 11:55:59;;;;;;;18.25;9.35;;;7.70;59.40;;;;;;5033409;28;20376;-65
2021/01/06 11:58:31;;;;;;;17.58;10.43;;;7.80;58.50;;;;;;5032292;28;20086;-67
2021/01/06 12:01:02;;;;;;;19.83;9.95;;;7.50;58.80;;;;;;5033545;28;20041;-70
2021/01/06 12:04:02;;;;;;;20.77;10.93;;;7.20;59.70;;;;;;5032573;28;20044;-68
2021/01/06 12:06:41;;;;;;;22.40;10.45;;;6.80;61.20;;;;;;5033002;28;20033;-68
2021/01/06 12:09:32;;;;;;;17.70;9.77;;;6.60;62.70;;;;;;5033363;28;20401;-68
2021/01/06 12:12:10;;;;;;;17.30;10.18;;;6.90;61.60;;;;;;5033113;28;20028;-69
2021/01/06 12:14:49;;;;;;;14.43;9.05;;;7.00;60.50;;;;;;5033284;28;20837;-68
2021/01/06 12:17:27;;;;;;;18.45;9.88;;;7.00;60.50;;;;;;5020084;28;20103;-68
2021/01/06 12:20:07;;;;;;;16.95;8.88;;;6.90;60.90;;;;;;5031373;28;20053;-67
2021/01/06 12:22:35;;;;;;;16.02;9.13;;;7.00;60.40;;;;;;5032590;28;20053;-68
2021/01/06 12:25:04;;;;;;;19.77;9.70;;;7.10;60.10;;;;;;5032847;28;20033;-67
2021/01/06 12:27:44;;;;;;;19.27;9.48;;;7.00;59.90;;;;;;5033109;28;20105;-69
2021/01/06 12:30:10;;;;;;;19.70;10.05;;;;;;;;;;5032610;28;20057;-68
2021/01/06 12:32:55;;;;;;;20.05;9.90;;;7.00;60.30;;;;;;5032291;28;20473;-67
2021/01/06 12:35:38;;;;;;;19.77;9.45;;;7.00;60.20;;;;;;5032295;28;20072;-68
2021/01/06 12:38:24;;;;;;;17.02;8.88;;;7.20;60.00;;;;;;5032868;28;20021;-69
2021/01/06 12:41:05;;;;;;;22.60;9.90;;;7.30;58.70;;;;;;5032260;28;20032;-67
2021/01/06 12:43:49;;;;;;;16.35;9.30;;;7.40;59.30;;;;;;5032527;28;20033;-67
2021/01/06 12:46:18;;;;;;;18.73;9.18;;;7.30;58.70;;;;;;5032113;28;20358;-68
2021/01/06 12:48:57;;;;;;;20.80;9.82;;;7.30;59.50;;;;;;5032010;28;20120;-70
2021/01/06 12:51:26;;;;;;;17.60;8.98;;;7.20;59.30;;;;;;5032176;28;20035;-67
2021/01/06 12:54:02;;;;;;;16.63;9.60;;;7.40;59.30;;;;;;5032299;28;20056;-66
2021/01/06 12:56:40;;;;;;;19.77;10.43;;;7.40;59.20;;;;;;5032049;28;20033;-69
2021/01/06 12:59:16;;;;;;;19.05;9.68;;;7.90;58.40;;;;;;5032276;28;20041;-69
2021/01/06 13:02:02;;;;;;;17.40;9.70;;;8.10;57.80;;;;;;5031647;28;20029;-69
2021/01/06 13:04:37;;;;;;;22.15;9.55;;;8.20;57.30;;;;;;5032205;28;20427;-68
2021/01/06 13:07:12;;;;;;;20.38;9.80;;;8.20;57.70;;;;;;5019266;28;20038;-69
2021/01/06 13:09:54;;;;;;;19.35;10.48;;;8.30;57.90;;;;;;5031779;28;20041;-69
2021/01/06 13:12:20;;;;;;;17.02;9.60;;;;;;;;;;5032279;28;20048;-67
2021/01/06 13:15:02;;;;;;;21.55;8.88;;;8.60;57.00;;;;;;5031819;28;20034;-69
2021/01/06 13:17:36;;;;;;;26.35;10.40;;;8.70;56.60;;;;;;5031124;28;20033;-69
2021/01/06 13:20:03;;;;;;;18.83;9.50;;;;;;;;;;5031685;28;20374;-68
2021/01/06 13:22:51;;;;;;;23.63;10.05;;;9.00;55.60;;;;;;5031649;28;20061;-68
2021/01/06 13:25:17;;;;;;;18.00;10.20;;;;;;;;;;5031621;28;20037;-68
2021/01/06 13:27:52;;;;;;;21.23;9.85;;;8.80;55.70;;;;;;5031719;28;20030;-69
2021/01/06 13:30:30;;;;;;;17.90;9.15;;;8.80;54.90;;;;;;5031423;28;20037;-69
2021/01/06 13:33:19;;;;;;;16.95;9.10;;;8.50;55.00;;;;;;5031660;28;20025;-69
2021/01/06 13:35:58;;;;;;;16.67;9.13;;;8.20;55.80;;;;;;5031239;28;20386;-69
2021/01/06 13:38:33;;;;;;;20.88;9.40;;;8.00;56.20;;;;;;5030745;28;20038;-68
2021/01/06 13:41:13;;;;;;;20.00;10.67;;;8.00;56.50;;;;;;5031793;28;20051;-68